sensor_id;sensor_type;location;lat;lon;timestamp;temperature;humidity
53776;DHT22;44276;49.534;6.378;2023-01-25T00:01:52;1.90;99.90
53776;DHT22;44276;49.534;6.378;2023-01-25T00:04:22;2.00;99.90
53776;DHT22;44276;49.534;6.378;2023-01-25T00:06:50;2.00;99.90
53776;DHT22;44276;49.534;6.378;2023-01-25T00:09:19;2.10;99.90
53776;DHT22;44276;49.534;6.378;2023-01-25T00:11:48;2.00;99.90
53776;DHT22;44276;49.534;6.378;2023-01-25T00:14:18;2.00;99.90
53776;DHT22;44276;49.534;6.378;2023-01-25T00:16:46;2.00;99.90
53776;DHT22;44276;49.534;6.378;2023-01-25T00:19:14;2.00;99.90
53776;DHT22;44276;49.534;6.378;2023-01-25T00:21:43;2.00;99.90
53776;DHT22;44276;49.534;6.378;2023-01-25T00:24:11;2.00;99.90
53776;DHT22;44276;49.534;6.378;2023-01-25T00:26:41;2.00;99.90
53776;DHT22;44276;49.534;6.378;2023-01-25T00:29:11;2.00;99.90
53776;DHT22;44276;49.534;6.378;2023-01-25T00:31:49;2.00;99.90
53776;DHT22;44276;49.534;6.378;2023-01-25T00:34:44;2.00;99.90
53776;DHT22;44276;49.534;6.378;2023-01-25T00:37:19;1.90;99.90
53776;DHT22;44276;49.534;6.378;2023-01-25T00:39:51;1.90;99.90
53776;DHT22;44276;49.534;6.378;2023-01-25T00:42:19;1.90;99.90
53776;DHT22;44276;49.534;6.378;2023-01-25T00:44:48;2.00;99.90
53776;DHT22;44276;49.534;6.378;2023-01-25T00:47:18;2.00;99.90
53776;DHT22;44276;49.534;6.378;2023-01-25T00:49:46;2.00;99.90
53776;DHT22;44276;49.534;6.378;2023-01-25T00:52:14;2.00;99.90
53776;DHT22;44276;49.534;6.378;2023-01-25T00:54:42;2.00;99.90
53776;DHT22;44276;49.534;6.378;2023-01-25T00:57:10;2.00;99.90
53776;DHT22;44276;49.534;6.378;2023-01-25T00:59:39;1.90;99.90
53776;DHT22;44276;49.534;6.378;2023-01-25T01:02:10;1.90;99.90
53776;DHT22;44276;49.534;6.378;2023-01-25T01:04:40;1.90;99.90
53776;DHT22;44276;49.534;6.378;2023-01-25T01:07:11;1.90;99.90
53776;DHT22;44276;49.534;6.378;2023-01-25T01:09:40;1.90;99.90
53776;DHT22;44276;49.534;6.378;2023-01-25T01:12:08;1.90;99.90
53776;DHT22;44276;49.534;6.378;2023-01-25T01:14:36;1.90;99.90
53776;DHT22;44276;49.534;6.378;2023-01-25T01:17:05;1.90;99.90
53776;DHT22;44276;49.534;6.378;2023-01-25T01:19:33;1.90;99.90
53776;DHT22;44276;49.534;6.378;2023-01-25T01:22:03;1.90;99.90
53776;DHT22;44276;49.534;6.378;2023-01-25T01:24:31;1.90;99.90
53776;DHT22;44276;49.534;6.378;2023-01-25T01:26:59;1.90;99.90
53776;DHT22;44276;49.534;6.378;2023-01-25T01:29:27;1.90;99.90
53776;DHT22;44276;49.534;6.378;2023-01-25T01:31:55;1.90;99.90
53776;DHT22;44276;49.534;6.378;2023-01-25T01:34:23;1.90;99.90
53776;DHT22;44276;49.534;6.378;2023-01-25T01:36:51;1.90;99.90
53776;DHT22;44276;49.534;6.378;2023-01-25T01:39:21;1.90;99.90
53776;DHT22;44276;49.534;6.378;2023-01-25T01:41:49;1.80;99.90
53776;DHT22;44276;49.534;6.378;2023-01-25T01:44:19;1.80;99.90
53776;DHT22;44276;49.534;6.378;2023-01-25T01:47:09;1.80;99.90
53776;DHT22;44276;49.534;6.378;2023-01-25T01:49:44;1.80;99.90
53776;DHT22;44276;49.534;6.378;2023-01-25T01:52:20;1.80;99.90
53776;DHT22;44276;49.534;6.378;2023-01-25T01:54:57;1.80;99.90
53776;DHT22;44276;49.534;6.378;2023-01-25T01:57:31;1.80;99.90
53776;DHT22;44276;49.534;6.378;2023-01-25T02:00:06;1.80;99.90
53776;DHT22;44276;49.534;6.378;2023-01-25T02:02:38;1.80;99.90
53776;DHT22;44276;49.534;6.378;2023-01-25T02:05:13;1.80;99.90
53776;DHT22;44276;49.534;6.378;2023-01-25T02:07:48;1.80;99.90
53776;DHT22;44276;49.534;6.378;2023-01-25T02:10:24;1.80;99.90
53776;DHT22;44276;49.534;6.378;2023-01-25T02:12:55;1.80;99.90
53776;DHT22;44276;49.534;6.378;2023-01-25T02:15:27;1.80;99.90
53776;DHT22;44276;49.534;6.378;2023-01-25T02:18:00;1.80;99.90
53776;DHT22;44276;49.534;6.378;2023-01-25T02:20:35;1.70;99.90
53776;DHT22;44276;49.534;6.378;2023-01-25T02:23:10;1.70;99.90
53776;DHT22;44276;49.534;6.378;2023-01-25T02:25:48;1.70;99.90
53776;DHT22;44276;49.534;6.378;2023-01-25T02:28:20;1.70;99.90
53776;DHT22;44276;49.534;6.378;2023-01-25T02:30:50;1.70;99.90
53776;DHT22;44276;49.534;6.378;2023-01-25T02:33:22;1.80;99.90
53776;DHT22;44276;49.534;6.378;2023-01-25T02:35:57;1.80;99.90
53776;DHT22;44276;49.534;6.378;2023-01-25T02:38:31;1.80;99.90
53776;DHT22;44276;49.534;6.378;2023-01-25T02:41:07;1.80;99.90
53776;DHT22;44276;49.534;6.378;2023-01-25T02:43:39;1.80;99.90
53776;DHT22;44276;49.534;6.378;2023-01-25T02:46:15;1.80;99.90
53776;DHT22;44276;49.534;6.378;2023-01-25T02:48:49;1.70;99.90
53776;DHT22;44276;49.534;6.378;2023-01-25T02:51:17;1.80;99.90
53776;DHT22;44276;49.534;6.378;2023-01-25T02:53:46;1.80;99.90
53776;DHT22;44276;49.534;6.378;2023-01-25T02:56:16;1.70;99.90
53776;DHT22;44276;49.534;6.378;2023-01-25T02:58:44;1.80;99.90
53776;DHT22;44276;49.534;6.378;2023-01-25T03:01:13;1.80;99.90
53776;DHT22;44276;49.534;6.378;2023-01-25T03:03:42;1.80;99.90
53776;DHT22;44276;49.534;6.378;2023-01-25T03:06:10;1.80;99.90
53776;DHT22;44276;49.534;6.378;2023-01-25T03:08:38;1.80;99.90
53776;DHT22;44276;49.534;6.378;2023-01-25T03:11:06;1.80;99.90
53776;DHT22;44276;49.534;6.378;2023-01-25T03:13:36;1.80;99.90
53776;DHT22;44276;49.534;6.378;2023-01-25T03:16:07;1.80;99.90
53776;DHT22;44276;49.534;6.378;2023-01-25T03:18:37;1.80;99.90
53776;DHT22;44276;49.534;6.378;2023-01-25T03:21:07;1.80;99.90
53776;DHT22;44276;49.534;6.378;2023-01-25T03:23:37;1.70;99.90
53776;DHT22;44276;49.534;6.378;2023-01-25T03:26:08;1.80;99.90
53776;DHT22;44276;49.534;6.378;2023-01-25T03:28:39;1.80;99.90
53776;DHT22;44276;49.534;6.378;2023-01-25T03:31:10;1.80;99.90
53776;DHT22;44276;49.534;6.378;2023-01-25T03:33:41;1.80;99.90
53776;DHT22;44276;49.534;6.378;2023-01-25T03:36:09;1.80;99.90
53776;DHT22;44276;49.534;6.378;2023-01-25T03:38:38;1.70;99.90
53776;DHT22;44276;49.534;6.378;2023-01-25T03:41:06;1.70;99.90
53776;DHT22;44276;49.534;6.378;2023-01-25T03:43:35;1.70;99.90
53776;DHT22;44276;49.534;6.378;2023-01-25T03:46:05;1.70;99.90
53776;DHT22;44276;49.534;6.378;2023-01-25T03:48:33;1.70;99.90
53776;DHT22;44276;49.534;6.378;2023-01-25T03:51:01;1.70;99.90
53776;DHT22;44276;49.534;6.378;2023-01-25T03:53:30;1.70;99.90
53776;DHT22;44276;49.534;6.378;2023-01-25T03:56:00;1.60;99.90
53776;DHT22;44276;49.534;6.378;2023-01-25T03:58:30;1.60;99.90
53776;DHT22;44276;49.534;6.378;2023-01-25T04:00:59;1.60;99.90
53776;DHT22;44276;49.534;6.378;2023-01-25T04:03:30;1.60;99.90
53776;DHT22;44276;49.534;6.378;2023-01-25T04:05:58;1.60;99.90
53776;DHT22;44276;49.534;6.378;2023-01-25T04:08:27;1.60;99.90
53776;DHT22;44276;49.534;6.378;2023-01-25T04:10:58;1.60;99.90
53776;DHT22;44276;49.534;6.378;2023-01-25T04:13:28;1.60;99.90
53776;DHT22;44276;49.534;6.378;2023-01-25T04:15:56;1.60;99.90
53776;DHT22;44276;49.534;6.378;2023-01-25T04:18:24;1.60;99.90
53776;DHT22;44276;49.534;6.378;2023-01-25T04:20:55;1.60;99.90
53776;DHT22;44276;49.534;6.378;2023-01-25T04:23:25;1.50;99.90
53776;DHT22;44276;49.534;6.378;2023-01-25T04:25:54;1.60;99.90
53776;DHT22;44276;49.534;6.378;2023-01-25T04:28:23;1.50;99.90
53776;DHT22;44276;49.534;6.378;2023-01-25T04:30:52;1.50;99.90
53776;DHT22;44276;49.534;6.378;2023-01-25T04:33:21;1.50;99.90
53776;DHT22;44276;49.534;6.378;2023-01-25T04:35:50;1.50;99.90
53776;DHT22;44276;49.534;6.378;2023-01-25T04:38:20;1.50;99.90
53776;DHT22;44276;49.534;6.378;2023-01-25T04:40:49;1.50;99.90
53776;DHT22;44276;49.534;6.378;2023-01-25T04:43:19;1.50;99.90
53776;DHT22;44276;49.534;6.378;2023-01-25T04:45:47;1.50;99.90
53776;DHT22;44276;49.534;6.378;2023-01-25T04:48:16;1.40;99.90
53776;DHT22;44276;49.534;6.378;2023-01-25T04:50:44;1.50;99.90
53776;DHT22;44276;49.534;6.378;2023-01-25T04:53:13;1.50;99.90
53776;DHT22;44276;49.534;6.378;2023-01-25T04:55:44;1.50;99.90
53776;DHT22;44276;49.534;6.378;2023-01-25T04:58:14;1.50;99.90
53776;DHT22;44276;49.534;6.378;2023-01-25T05:00:42;1.50;99.90
53776;DHT22;44276;49.534;6.378;2023-01-25T05:03:10;1.50;99.90
53776;DHT22;44276;49.534;6.378;2023-01-25T05:05:38;1.50;99.90
53776;DHT22;44276;49.534;6.378;2023-01-25T05:08:12;1.50;99.90
53776;DHT22;44276;49.534;6.378;2023-01-25T05:10:40;1.50;99.90
53776;DHT22;44276;49.534;6.378;2023-01-25T05:13:09;1.50;99.90
53776;DHT22;44276;49.534;6.378;2023-01-25T05:15:38;1.50;99.90
53776;DHT22;44276;49.534;6.378;2023-01-25T05:18:06;1.50;99.90
53776;DHT22;44276;49.534;6.378;2023-01-25T05:20:34;1.50;99.90
53776;DHT22;44276;49.534;6.378;2023-01-25T05:23:02;1.50;99.90
53776;DHT22;44276;49.534;6.378;2023-01-25T05:25:30;1.50;99.90
53776;DHT22;44276;49.534;6.378;2023-01-25T05:28:17;1.50;99.90
53776;DHT22;44276;49.534;6.378;2023-01-25T05:30:45;1.50;99.90
53776;DHT22;44276;49.534;6.378;2023-01-25T05:33:13;1.50;99.90
53776;DHT22;44276;49.534;6.378;2023-01-25T05:35:41;1.50;99.90
53776;DHT22;44276;49.534;6.378;2023-01-25T05:38:10;1.50;99.90
53776;DHT22;44276;49.534;6.378;2023-01-25T05:40:38;1.50;99.90
53776;DHT22;44276;49.534;6.378;2023-01-25T05:43:07;1.50;99.90
53776;DHT22;44276;49.534;6.378;2023-01-25T05:45:36;1.50;99.90
53776;DHT22;44276;49.534;6.378;2023-01-25T05:48:05;1.50;99.90
53776;DHT22;44276;49.534;6.378;2023-01-25T05:50:33;1.50;99.90
53776;DHT22;44276;49.534;6.378;2023-01-25T05:53:02;1.50;99.90
53776;DHT22;44276;49.534;6.378;2023-01-25T05:55:30;1.50;99.90
53776;DHT22;44276;49.534;6.378;2023-01-25T05:57:58;1.40;99.90
53776;DHT22;44276;49.534;6.378;2023-01-25T06:00:26;1.50;99.90
53776;DHT22;44276;49.534;6.378;2023-01-25T06:02:59;1.50;99.90
53776;DHT22;44276;49.534;6.378;2023-01-25T06:05:28;1.50;99.90
53776;DHT22;44276;49.534;6.378;2023-01-25T06:07:57;1.50;99.90
53776;DHT22;44276;49.534;6.378;2023-01-25T06:10:25;1.50;99.90
53776;DHT22;44276;49.534;6.378;2023-01-25T06:12:57;1.50;99.90
53776;DHT22;44276;49.534;6.378;2023-01-25T06:15:25;1.40;99.90
53776;DHT22;44276;49.534;6.378;2023-01-25T06:17:55;1.50;99.90
53776;DHT22;44276;49.534;6.378;2023-01-25T06:20:23;1.40;99.90
53776;DHT22;44276;49.534;6.378;2023-01-25T06:22:51;1.40;99.90
53776;DHT22;44276;49.534;6.378;2023-01-25T06:25:19;1.40;99.90
53776;DHT22;44276;49.534;6.378;2023-01-25T06:27:47;1.40;99.90
53776;DHT22;44276;49.534;6.378;2023-01-25T06:30:16;1.40;99.90
53776;DHT22;44276;49.534;6.378;2023-01-25T06:32:44;1.40;99.90
53776;DHT22;44276;49.534;6.378;2023-01-25T06:35:13;1.40;99.90
53776;DHT22;44276;49.534;6.378;2023-01-25T06:37:42;1.40;99.90
53776;DHT22;44276;49.534;6.378;2023-01-25T06:40:10;1.40;99.90
53776;DHT22;44276;49.534;6.378;2023-01-25T06:42:39;1.40;99.90
53776;DHT22;44276;49.534;6.378;2023-01-25T06:45:08;1.40;99.90
53776;DHT22;44276;49.534;6.378;2023-01-25T06:47:38;1.40;99.90
53776;DHT22;44276;49.534;6.378;2023-01-25T06:50:07;1.30;99.90
53776;DHT22;44276;49.534;6.378;2023-01-25T06:52:38;1.30;99.90
53776;DHT22;44276;49.534;6.378;2023-01-25T06:55:07;1.30;99.90
53776;DHT22;44276;49.534;6.378;2023-01-25T06:57:39;1.30;99.90
53776;DHT22;44276;49.534;6.378;2023-01-25T07:00:08;1.30;99.90
53776;DHT22;44276;49.534;6.378;2023-01-25T07:02:37;1.30;99.90
53776;DHT22;44276;49.534;6.378;2023-01-25T07:05:06;1.30;99.90
53776;DHT22;44276;49.534;6.378;2023-01-25T07:07:35;1.30;99.90
53776;DHT22;44276;49.534;6.378;2023-01-25T07:10:06;1.30;99.90
53776;DHT22;44276;49.534;6.378;2023-01-25T07:12:35;1.40;99.90
53776;DHT22;44276;49.534;6.378;2023-01-25T07:15:04;1.40;99.90
53776;DHT22;44276;49.534;6.378;2023-01-25T07:17:33;1.40;99.90
53776;DHT22;44276;49.534;6.378;2023-01-25T07:20:02;1.40;99.90
53776;DHT22;44276;49.534;6.378;2023-01-25T07:22:30;1.30;99.90
53776;DHT22;44276;49.534;6.378;2023-01-25T07:25:02;1.30;99.90
53776;DHT22;44276;49.534;6.378;2023-01-25T07:27:32;1.30;99.90
53776;DHT22;44276;49.534;6.378;2023-01-25T07:30:01;1.30;99.90
53776;DHT22;44276;49.534;6.378;2023-01-25T07:32:29;1.30;99.90
53776;DHT22;44276;49.534;6.378;2023-01-25T07:34:57;1.30;99.90
53776;DHT22;44276;49.534;6.378;2023-01-25T07:37:26;1.20;99.90
53776;DHT22;44276;49.534;6.378;2023-01-25T07:39:54;1.20;99.90
53776;DHT22;44276;49.534;6.378;2023-01-25T07:42:25;1.20;99.90
53776;DHT22;44276;49.534;6.378;2023-01-25T07:44:53;1.20;99.90
53776;DHT22;44276;49.534;6.378;2023-01-25T07:47:21;1.20;99.90
53776;DHT22;44276;49.534;6.378;2023-01-25T07:49:49;1.20;99.90
53776;DHT22;44276;49.534;6.378;2023-01-25T07:52:17;1.30;99.90
53776;DHT22;44276;49.534;6.378;2023-01-25T07:54:45;1.30;99.90
53776;DHT22;44276;49.534;6.378;2023-01-25T07:57:15;1.30;99.90
53776;DHT22;44276;49.534;6.378;2023-01-25T07:59:45;1.30;99.90
53776;DHT22;44276;49.534;6.378;2023-01-25T08:02:13;1.40;99.90
53776;DHT22;44276;49.534;6.378;2023-01-25T08:04:41;1.40;99.90
53776;DHT22;44276;49.534;6.378;2023-01-25T08:07:12;1.30;99.90
53776;DHT22;44276;49.534;6.378;2023-01-25T08:09:41;1.30;99.90
53776;DHT22;44276;49.534;6.378;2023-01-25T08:12:09;1.40;99.90
53776;DHT22;44276;49.534;6.378;2023-01-25T08:14:37;1.30;99.90
53776;DHT22;44276;49.534;6.378;2023-01-25T08:17:07;1.30;99.90
53776;DHT22;44276;49.534;6.378;2023-01-25T08:19:35;1.40;99.90
53776;DHT22;44276;49.534;6.378;2023-01-25T08:22:06;1.40;99.90
53776;DHT22;44276;49.534;6.378;2023-01-25T08:24:34;1.40;99.90
53776;DHT22;44276;49.534;6.378;2023-01-25T08:27:02;1.40;99.90
53776;DHT22;44276;49.534;6.378;2023-01-25T08:29:30;1.40;99.90
53776;DHT22;44276;49.534;6.378;2023-01-25T08:31:58;1.50;99.90
53776;DHT22;44276;49.534;6.378;2023-01-25T08:34:31;1.50;99.90
53776;DHT22;44276;49.534;6.378;2023-01-25T08:36:59;1.50;99.90
53776;DHT22;44276;49.534;6.378;2023-01-25T08:39:27;1.60;99.90
53776;DHT22;44276;49.534;6.378;2023-01-25T08:41:55;1.60;99.90
53776;DHT22;44276;49.534;6.378;2023-01-25T08:44:23;1.60;99.90
53776;DHT22;44276;49.534;6.378;2023-01-25T08:46:51;1.60;99.90
53776;DHT22;44276;49.534;6.378;2023-01-25T08:49:20;1.60;99.90
53776;DHT22;44276;49.534;6.378;2023-01-25T08:51:49;1.60;99.90
53776;DHT22;44276;49.534;6.378;2023-01-25T08:54:18;1.60;99.90
53776;DHT22;44276;49.534;6.378;2023-01-25T08:56:46;1.70;99.90
53776;DHT22;44276;49.534;6.378;2023-01-25T08:59:14;1.70;99.90
53776;DHT22;44276;49.534;6.378;2023-01-25T09:01:42;1.60;99.90
53776;DHT22;44276;49.534;6.378;2023-01-25T09:04:10;1.60;99.90
53776;DHT22;44276;49.534;6.378;2023-01-25T09:06:38;1.60;99.90
53776;DHT22;44276;49.534;6.378;2023-01-25T09:09:09;1.60;99.90
53776;DHT22;44276;49.534;6.378;2023-01-25T09:11:38;1.70;99.90
53776;DHT22;44276;49.534;6.378;2023-01-25T09:14:06;1.80;99.90
53776;DHT22;44276;49.534;6.378;2023-01-25T09:16:34;1.80;99.90
53776;DHT22;44276;49.534;6.378;2023-01-25T09:19:03;1.70;99.90
53776;DHT22;44276;49.534;6.378;2023-01-25T09:21:33;1.70;99.90
53776;DHT22;44276;49.534;6.378;2023-01-25T09:24:03;1.70;99.90
53776;DHT22;44276;49.534;6.378;2023-01-25T09:26:37;1.80;99.90
53776;DHT22;44276;49.534;6.378;2023-01-25T09:29:08;1.80;99.90
53776;DHT22;44276;49.534;6.378;2023-01-25T09:31:37;1.70;99.90
53776;DHT22;44276;49.534;6.378;2023-01-25T09:34:10;1.70;99.90
53776;DHT22;44276;49.534;6.378;2023-01-25T09:36:39;1.80;99.90
53776;DHT22;44276;49.534;6.378;2023-01-25T09:39:08;1.80;99.90
53776;DHT22;44276;49.534;6.378;2023-01-25T09:41:58;1.80;99.90
53776;DHT22;44276;49.534;6.378;2023-01-25T09:44:58;1.80;99.90
53776;DHT22;44276;49.534;6.378;2023-01-25T09:47:44;1.80;99.90
53776;DHT22;44276;49.534;6.378;2023-01-25T09:50:29;1.80;99.90
53776;DHT22;44276;49.534;6.378;2023-01-25T09:56:01;1.90;99.90
53776;DHT22;44276;49.534;6.378;2023-01-25T09:58:39;1.90;99.90
53776;DHT22;44276;49.534;6.378;2023-01-25T10:01:20;1.90;99.90
53776;DHT22;44276;49.534;6.378;2023-01-25T10:04:10;1.90;99.90
53776;DHT22;44276;49.534;6.378;2023-01-25T10:06:43;1.90;99.90
53776;DHT22;44276;49.534;6.378;2023-01-25T10:09:34;1.90;99.90
53776;DHT22;44276;49.534;6.378;2023-01-25T10:12:14;1.90;99.90
53776;DHT22;44276;49.534;6.378;2023-01-25T10:14:48;1.80;99.90
53776;DHT22;44276;49.534;6.378;2023-01-25T10:17:26;1.80;99.90
53776;DHT22;44276;49.534;6.378;2023-01-25T10:20:07;1.70;99.90
53776;DHT22;44276;49.534;6.378;2023-01-25T10:22:50;1.70;99.90
53776;DHT22;44276;49.534;6.378;2023-01-25T10:25:31;1.70;99.90
53776;DHT22;44276;49.534;6.378;2023-01-25T10:28:30;1.80;99.90
53776;DHT22;44276;49.534;6.378;2023-01-25T10:31:15;1.80;99.90
53776;DHT22;44276;49.534;6.378;2023-01-25T10:33:47;1.80;99.90
53776;DHT22;44276;49.534;6.378;2023-01-25T10:36:17;1.90;99.90
53776;DHT22;44276;49.534;6.378;2023-01-25T10:38:49;1.90;99.90
53776;DHT22;44276;49.534;6.378;2023-01-25T10:41:26;2.00;99.90
53776;DHT22;44276;49.534;6.378;2023-01-25T10:43:59;2.20;99.90
53776;DHT22;44276;49.534;6.378;2023-01-25T10:46:48;2.10;99.90
53776;DHT22;44276;49.534;6.378;2023-01-25T10:49:24;2.20;99.90
53776;DHT22;44276;49.534;6.378;2023-01-25T10:51:55;2.20;99.90
53776;DHT22;44276;49.534;6.378;2023-01-25T10:54:40;2.20;99.90
53776;DHT22;44276;49.534;6.378;2023-01-25T10:57:13;2.10;99.90
53776;DHT22;44276;49.534;6.378;2023-01-25T10:59:45;2.10;99.90
53776;DHT22;44276;49.534;6.378;2023-01-25T11:02:39;2.20;99.90
53776;DHT22;44276;49.534;6.378;2023-01-25T11:05:32;2.10;99.90
53776;DHT22;44276;49.534;6.378;2023-01-25T11:08:21;2.20;99.90
53776;DHT22;44276;49.534;6.378;2023-01-25T11:10:53;2.20;99.90
53776;DHT22;44276;49.534;6.378;2023-01-25T11:13:23;2.20;99.90
53776;DHT22;44276;49.534;6.378;2023-01-25T11:16:19;2.30;99.90
53776;DHT22;44276;49.534;6.378;2023-01-25T11:18:58;2.20;99.90
53776;DHT22;44276;49.534;6.378;2023-01-25T11:21:29;2.10;99.90
53776;DHT22;44276;49.534;6.378;2023-01-25T11:24:14;2.10;99.90
53776;DHT22;44276;49.534;6.378;2023-01-25T11:26:44;2.10;99.90
53776;DHT22;44276;49.534;6.378;2023-01-25T11:29:15;2.00;99.90
53776;DHT22;44276;49.534;6.378;2023-01-25T11:31:47;2.20;99.90
53776;DHT22;44276;49.534;6.378;2023-01-25T11:34:20;2.20;99.90
53776;DHT22;44276;49.534;6.378;2023-01-25T11:37:11;2.20;99.90
53776;DHT22;44276;49.534;6.378;2023-01-25T11:39:56;2.40;99.90
53776;DHT22;44276;49.534;6.378;2023-01-25T11:42:36;2.40;99.90
53776;DHT22;44276;49.534;6.378;2023-01-25T11:45:26;2.40;99.90
53776;DHT22;44276;49.534;6.378;2023-01-25T11:48:21;2.40;99.90
53776;DHT22;44276;49.534;6.378;2023-01-25T11:51:02;2.50;99.90
53776;DHT22;44276;49.534;6.378;2023-01-25T11:53:49;2.40;99.90
53776;DHT22;44276;49.534;6.378;2023-01-25T11:56:38;2.40;99.90
53776;DHT22;44276;49.534;6.378;2023-01-25T11:59:27;2.30;99.90
53776;DHT22;44276;49.534;6.378;2023-01-25T12:02:19;2.30;99.90
53776;DHT22;44276;49.534;6.378;2023-01-25T12:05:13;2.30;99.90
53776;DHT22;44276;49.534;6.378;2023-01-25T12:08:02;2.40;99.90
53776;DHT22;44276;49.534;6.378;2023-01-25T12:10:50;2.40;99.90
53776;DHT22;44276;49.534;6.378;2023-01-25T12:13:35;2.40;99.90
53776;DHT22;44276;49.534;6.378;2023-01-25T12:16:29;2.50;99.90
53776;DHT22;44276;49.534;6.378;2023-01-25T12:19:23;2.40;99.90
53776;DHT22;44276;49.534;6.378;2023-01-25T12:22:13;2.30;99.90
53776;DHT22;44276;49.534;6.378;2023-01-25T12:25:01;2.20;99.90
53776;DHT22;44276;49.534;6.378;2023-01-25T12:27:48;2.30;99.90
53776;DHT22;44276;49.534;6.378;2023-01-25T12:30:42;2.10;99.90
53776;DHT22;44276;49.534;6.378;2023-01-25T12:33:16;2.20;99.90
53776;DHT22;44276;49.534;6.378;2023-01-25T12:35:53;2.20;99.90
53776;DHT22;44276;49.534;6.378;2023-01-25T12:38:29;2.20;99.90
53776;DHT22;44276;49.534;6.378;2023-01-25T12:41:10;2.20;99.90
53776;DHT22;44276;49.534;6.378;2023-01-25T12:43:51;2.20;99.90
53776;DHT22;44276;49.534;6.378;2023-01-25T12:46:25;2.20;99.90
53776;DHT22;44276;49.534;6.378;2023-01-25T12:49:01;2.20;99.90
53776;DHT22;44276;49.534;6.378;2023-01-25T12:51:35;2.30;99.90
53776;DHT22;44276;49.534;6.378;2023-01-25T12:54:14;2.30;99.90
53776;DHT22;44276;49.534;6.378;2023-01-25T12:56:54;2.20;99.90
53776;DHT22;44276;49.534;6.378;2023-01-25T12:59:34;2.10;99.90
53776;DHT22;44276;49.534;6.378;2023-01-25T13:05:21;2.10;99.90
53776;DHT22;44276;49.534;6.378;2023-01-25T13:08:03;2.10;99.90
53776;DHT22;44276;49.534;6.378;2023-01-25T13:10:50;2.20;99.90
53776;DHT22;44276;49.534;6.378;2023-01-25T13:13:24;2.10;99.90
53776;DHT22;44276;49.534;6.378;2023-01-25T13:15:54;2.20;99.90
53776;DHT22;44276;49.534;6.378;2023-01-25T13:18:35;2.20;99.90
53776;DHT22;44276;49.534;6.378;2023-01-25T13:21:09;2.20;99.90
53776;DHT22;44276;49.534;6.378;2023-01-25T13:24:13;2.20;99.90
53776;DHT22;44276;49.534;6.378;2023-01-25T13:26:48;2.20;99.90
53776;DHT22;44276;49.534;6.378;2023-01-25T13:29:44;2.10;99.90
53776;DHT22;44276;49.534;6.378;2023-01-25T13:35:28;1.90;99.90
53776;DHT22;44276;49.534;6.378;2023-01-25T13:38:01;2.00;99.90
53776;DHT22;44276;49.534;6.378;2023-01-25T13:40:33;2.00;99.90
53776;DHT22;44276;49.534;6.378;2023-01-25T13:43:04;2.00;99.90
53776;DHT22;44276;49.534;6.378;2023-01-25T13:45:47;2.10;99.90
53776;DHT22;44276;49.534;6.378;2023-01-25T13:48:20;2.10;99.90
53776;DHT22;44276;49.534;6.378;2023-01-25T13:50:53;2.10;99.90
53776;DHT22;44276;49.534;6.378;2023-01-25T13:53:26;2.00;99.90
53776;DHT22;44276;49.534;6.378;2023-01-25T13:55:58;2.00;99.90
53776;DHT22;44276;49.534;6.378;2023-01-25T13:58:28;1.90;99.90
53776;DHT22;44276;49.534;6.378;2023-01-25T14:01:01;1.90;99.90
53776;DHT22;44276;49.534;6.378;2023-01-25T14:03:34;1.90;99.90
53776;DHT22;44276;49.534;6.378;2023-01-25T14:06:14;1.90;99.90
53776;DHT22;44276;49.534;6.378;2023-01-25T14:08:45;1.90;99.90
53776;DHT22;44276;49.534;6.378;2023-01-25T14:11:19;1.90;99.90
53776;DHT22;44276;49.534;6.378;2023-01-25T14:13:58;1.90;99.90
53776;DHT22;44276;49.534;6.378;2023-01-25T14:16:30;2.00;99.90
53776;DHT22;44276;49.534;6.378;2023-01-25T14:19:20;2.00;99.90
53776;DHT22;44276;49.534;6.378;2023-01-25T14:21:50;2.00;99.90
53776;DHT22;44276;49.534;6.378;2023-01-25T14:24:40;2.10;99.90
53776;DHT22;44276;49.534;6.378;2023-01-25T14:27:12;2.00;99.90
53776;DHT22;44276;49.534;6.378;2023-01-25T14:29:47;1.90;99.90
53776;DHT22;44276;49.534;6.378;2023-01-25T14:32:19;1.80;99.90
53776;DHT22;44276;49.534;6.378;2023-01-25T14:34:50;1.80;99.90
53776;DHT22;44276;49.534;6.378;2023-01-25T14:37:20;1.70;99.90
53776;DHT22;44276;49.534;6.378;2023-01-25T14:39:50;1.70;99.90
53776;DHT22;44276;49.534;6.378;2023-01-25T14:42:19;1.70;99.90
53776;DHT22;44276;49.534;6.378;2023-01-25T14:44:47;1.70;99.90
53776;DHT22;44276;49.534;6.378;2023-01-25T14:47:25;1.70;99.90
53776;DHT22;44276;49.534;6.378;2023-01-25T14:50:30;1.60;99.90
53776;DHT22;44276;49.534;6.378;2023-01-25T14:53:07;1.60;99.90
53776;DHT22;44276;49.534;6.378;2023-01-25T14:55:43;1.70;99.90
53776;DHT22;44276;49.534;6.378;2023-01-25T14:58:16;1.60;99.90
53776;DHT22;44276;49.534;6.378;2023-01-25T15:00:51;1.50;99.90
53776;DHT22;44276;49.534;6.378;2023-01-25T15:03:21;1.50;99.90
53776;DHT22;44276;49.534;6.378;2023-01-25T15:05:53;1.50;99.90
53776;DHT22;44276;49.534;6.378;2023-01-25T15:08:27;1.50;99.90
53776;DHT22;44276;49.534;6.378;2023-01-25T15:10:58;1.40;99.90
53776;DHT22;44276;49.534;6.378;2023-01-25T15:13:47;1.40;99.90
53776;DHT22;44276;49.534;6.378;2023-01-25T15:16:15;1.40;99.90
53776;DHT22;44276;49.534;6.378;2023-01-25T15:18:46;1.40;99.90
53776;DHT22;44276;49.534;6.378;2023-01-25T15:21:18;1.30;99.90
53776;DHT22;44276;49.534;6.378;2023-01-25T15:23:51;1.30;99.90
53776;DHT22;44276;49.534;6.378;2023-01-25T15:26:22;1.30;99.90
53776;DHT22;44276;49.534;6.378;2023-01-25T15:28:53;1.30;99.90
53776;DHT22;44276;49.534;6.378;2023-01-25T15:31:25;1.30;99.90
53776;DHT22;44276;49.534;6.378;2023-01-25T15:33:57;1.30;99.90
53776;DHT22;44276;49.534;6.378;2023-01-25T15:36:28;1.30;99.90
53776;DHT22;44276;49.534;6.378;2023-01-25T15:38:56;1.20;99.90
53776;DHT22;44276;49.534;6.378;2023-01-25T15:41:25;1.20;99.90
53776;DHT22;44276;49.534;6.378;2023-01-25T15:43:54;1.20;99.90
53776;DHT22;44276;49.534;6.378;2023-01-25T15:46:25;1.20;99.90
53776;DHT22;44276;49.534;6.378;2023-01-25T15:48:56;1.20;99.90
53776;DHT22;44276;49.534;6.378;2023-01-25T15:51:25;1.20;99.90
53776;DHT22;44276;49.534;6.378;2023-01-25T15:53:54;1.20;99.90
53776;DHT22;44276;49.534;6.378;2023-01-25T15:56:24;1.20;99.90
53776;DHT22;44276;49.534;6.378;2023-01-25T15:58:57;1.20;99.90
53776;DHT22;44276;49.534;6.378;2023-01-25T16:01:28;1.20;99.90
53776;DHT22;44276;49.534;6.378;2023-01-25T16:04:00;1.10;99.90
53776;DHT22;44276;49.534;6.378;2023-01-25T16:06:35;1.10;99.90
53776;DHT22;44276;49.534;6.378;2023-01-25T16:09:16;1.10;99.90
53776;DHT22;44276;49.534;6.378;2023-01-25T16:11:46;1.10;99.90
53776;DHT22;44276;49.534;6.378;2023-01-25T16:14:17;1.10;99.90
53776;DHT22;44276;49.534;6.378;2023-01-25T16:16:47;1.10;99.90
53776;DHT22;44276;49.534;6.378;2023-01-25T16:19:20;1.10;99.90
53776;DHT22;44276;49.534;6.378;2023-01-25T16:21:50;1.00;99.90
53776;DHT22;44276;49.534;6.378;2023-01-25T16:24:18;1.00;99.90
53776;DHT22;44276;49.534;6.378;2023-01-25T16:26:49;1.00;99.90
53776;DHT22;44276;49.534;6.378;2023-01-25T16:29:19;1.00;99.90
53776;DHT22;44276;49.534;6.378;2023-01-25T16:31:49;1.00;99.90